Startpagina
METAR-TAF:

METAR-TAF

Vliegvelden :

P11-b, Nederland

Productieplatform

breedte: 52-21-36N, lengte: 3-20-30E, hoogte: 24 m

Actueel weer

Dit bericht is 21 minuten geleden gemaakt, om 04:55 UTC
Wind 20 kt uit het westzuidwesten, variërend tussen het zuiden en het westnoordwesten
Temperatuur 6°C
Vochtigheid 70%
Druk 1004 hPa
Zicht 10 km of meer
Verspreide wolken op 1800 ft
Verspreide wolken op 2100 ft

METAR: EHPG 200455Z AUTO 25020KT 180V300 9999 SCT018 SCT021 06/01 Q1004 W///H///

Tijdstip: 06:16 (05:16 UTC)


TAF: ontbreekt

Waarnemingen en weersverwachtingen van meer dan 4000 vliegvelden (METAR en TAF).

De beschikbare stations zijn de gele en rode punten op de kaart.

Ga met uw muis naar het station om de naam te zien.

Klik dan om waarnemingen en weersverwachtingen te zien.

kaart wijzigen: klik op de groene knoppen met een zwart kruis om in te zoomen, op de groene knop met een streepje om uit te zoomen of op de groene pijlen voor aangrenzende kaarten.


METAR-TAF: